createdAt,value
2018-06-23T00:01:21.103Z,98748.69
2018-06-23T00:03:49.962Z,98749.80
2018-06-23T00:06:18.850Z,98752.91
2018-06-23T00:08:47.956Z,98750.89
2018-06-23T00:11:16.823Z,98749.16
2018-06-23T00:13:45.710Z,98745.79
2018-06-23T00:16:14.534Z,98739.44
2018-06-23T00:18:43.310Z,98738.98
2018-06-23T00:21:12.419Z,98735.81
2018-06-23T00:23:41.330Z,98741.09
2018-06-23T00:26:15.376Z,98741.23
2018-06-23T00:28:44.695Z,98745.64
2018-06-23T00:31:13.693Z,98740.28
2018-06-23T00:33:42.593Z,98736.91
2018-06-23T00:36:11.400Z,98735.36
2018-06-23T00:38:40.376Z,98721.48
2018-06-23T00:41:09.151Z,98737.13
2018-06-23T00:43:38.208Z,98725.80
2018-06-23T00:46:06.925Z,98731.86
2018-06-23T00:48:35.726Z,98726.05
2018-06-23T00:51:04.618Z,98726.41
2018-06-23T00:53:33.821Z,98728.96
2018-06-23T00:56:03.007Z,98722.90
2018-06-23T00:58:42.174Z,98728.66
2018-06-23T01:01:11.061Z,98726.50
2018-06-23T01:03:40.535Z,98723.80
2018-06-23T01:06:09.385Z,98732.06
2018-06-23T01:08:38.214Z,98733.51
2018-06-23T01:11:07.266Z,98725.89
2018-06-23T01:13:36.705Z,98728.00
2018-06-23T01:16:06.145Z,98729.55
2018-06-23T01:18:35.038Z,98727.43
2018-06-23T01:21:03.825Z,98723.09
2018-06-23T01:23:32.662Z,98728.94
2018-06-23T01:26:01.548Z,98729.95
2018-06-23T01:28:30.650Z,98728.28
2018-06-23T01:30:59.650Z,98730.73
2018-06-23T01:33:28.445Z,98737.15
2018-06-23T01:35:57.902Z,98735.09
2018-06-23T01:38:26.850Z,98734.70
2018-06-23T01:40:55.848Z,98735.59
2018-06-23T01:43:24.853Z,98738.25
2018-06-23T01:45:53.911Z,98737.50
2018-06-23T01:48:23.205Z,98730.73
2018-06-23T01:50:52.126Z,98730.65
2018-06-23T01:53:20.944Z,98728.23
2018-06-23T01:55:49.867Z,98730.23
2018-06-23T01:58:18.758Z,98726.05
2018-06-23T02:00:47.690Z,98724.77
2018-06-23T02:03:16.707Z,98730.87
2018-06-23T02:05:45.603Z,98727.40
2018-06-23T02:08:14.519Z,98722.92
2018-06-23T02:10:43.732Z,98729.09
2018-06-23T02:13:12.599Z,98727.09
2018-06-23T02:15:46.694Z,98722.20
2018-06-23T02:18:20.543Z,98718.82
2018-06-23T02:20:54.806Z,98719.67
2018-06-23T02:23:28.703Z,98717.01
2018-06-23T02:28:05.227Z,98713.84
2018-06-23T02:30:40.725Z,98720.71
2018-06-23T02:33:14.589Z,98716.91
2018-06-23T02:35:43.561Z,98717.16
2018-06-23T02:38:12.490Z,98708.26
2018-06-23T02:40:41.307Z,98711.80
2018-06-23T02:43:10.142Z,98718.30
2018-06-23T02:45:39.286Z,98718.92
2018-06-23T02:48:08.119Z,98717.13
2018-06-23T02:50:37.067Z,98713.37
2018-06-23T02:53:06.134Z,98720.71
2018-06-23T02:55:35.319Z,98717.16
2018-06-23T02:58:04.102Z,98719.03
2018-06-23T03:00:33.003Z,98714.42
2018-06-23T03:03:01.975Z,98720.16
2018-06-23T03:05:30.774Z,98724.84
2018-06-23T03:07:59.703Z,98734.33
2018-06-23T03:10:28.520Z,98728.48
2018-06-23T03:12:57.414Z,98726.58
2018-06-23T03:15:26.441Z,98733.23
2018-06-23T03:17:55.275Z,98737.80
2018-06-23T03:20:24.093Z,98730.23
2018-06-23T03:22:53.022Z,98733.89
2018-06-23T03:25:21.822Z,98735.67
2018-06-23T03:27:50.821Z,98734.59
2018-06-23T03:30:19.572Z,98737.11
2018-06-23T03:32:48.569Z,98730.86
2018-06-23T03:35:17.393Z,98729.94
2018-06-23T03:37:46.320Z,98735.55
2018-06-23T03:40:15.334Z,98726.51
2018-06-23T03:42:44.290Z,98733.91
2018-06-23T03:45:13.368Z,98734.80
2018-06-23T03:47:42.323Z,98731.37
2018-06-23T03:50:11.181Z,98732.55
2018-06-23T03:52:40.410Z,98734.61
2018-06-23T03:55:09.279Z,98740.37
2018-06-23T03:57:38.123Z,98745.23
2018-06-23T04:00:07.318Z,98744.59
2018-06-23T04:02:36.557Z,98749.95
2018-06-23T04:05:05.515Z,98748.79
2018-06-23T04:07:34.504Z,98749.59
2018-06-23T04:10:03.707Z,98747.03
2018-06-23T04:12:32.987Z,98745.13
2018-06-23T04:15:02.042Z,98753.06
2018-06-23T04:17:30.973Z,98749.62
2018-06-23T04:20:00.264Z,98753.51
2018-06-23T04:22:29.107Z,98758.95
2018-06-23T04:24:57.802Z,98748.23
2018-06-23T04:27:26.757Z,98757.35
2018-06-23T04:29:55.658Z,98753.97
2018-06-23T04:32:24.610Z,98752.55
2018-06-23T04:34:53.471Z,98751.41
2018-06-23T04:37:22.631Z,98746.24
2018-06-23T04:39:51.482Z,98744.21
2018-06-23T04:42:20.346Z,98748.44
2018-06-23T04:44:49.117Z,98757.14
2018-06-23T04:47:17.987Z,98754.57
2018-06-23T04:49:46.773Z,98757.85
2018-06-23T04:52:15.796Z,98750.97
2018-06-23T04:54:44.911Z,98750.84
2018-06-23T04:57:13.735Z,98752.75
2018-06-23T04:59:43.010Z,98749.49
2018-06-23T05:02:12.086Z,98752.96
2018-06-23T05:04:40.934Z,98751.48
2018-06-23T05:07:09.765Z,98751.23
2018-06-23T05:09:38.614Z,98750.50
2018-06-23T05:12:07.513Z,98747.34
2018-06-23T05:14:36.273Z,98754.81
2018-06-23T05:17:05.522Z,98742.52
2018-06-23T05:19:34.357Z,98752.53
2018-06-23T05:22:03.133Z,98750.52
2018-06-23T05:24:32.090Z,98744.04
2018-06-23T05:27:00.780Z,98745.20
2018-06-23T05:29:29.830Z,98748.86
2018-06-23T05:31:58.543Z,98748.34
2018-06-23T05:34:27.289Z,98746.48
2018-06-23T05:36:56.219Z,98764.45
2018-06-23T05:39:25.003Z,98752.94
2018-06-23T05:41:53.897Z,98764.45
2018-06-23T05:44:22.741Z,98755.38
2018-06-23T05:46:52.109Z,98756.84
2018-06-23T05:49:21.085Z,98757.08
2018-06-23T05:51:49.989Z,98759.88
2018-06-23T05:54:18.748Z,98762.64
2018-06-23T05:56:47.471Z,98768.00
2018-06-23T05:59:16.442Z,98766.52
2018-06-23T06:01:45.242Z,98770.62
2018-06-23T06:04:13.956Z,98776.31
2018-06-23T06:06:42.897Z,98772.52
2018-06-23T06:09:11.760Z,98787.52
2018-06-23T06:11:40.570Z,98775.34
2018-06-23T06:14:09.285Z,98778.81
2018-06-23T06:16:51.502Z,98778.92
2018-06-23T06:19:20.237Z,98782.48
2018-06-23T06:21:49.111Z,98786.49
2018-06-23T06:24:17.909Z,98773.03
2018-06-23T06:26:46.730Z,98775.81
2018-06-23T06:29:15.607Z,98781.34
2018-06-23T06:31:44.371Z,98781.34
2018-06-23T06:34:13.195Z,98782.06
2018-06-23T06:36:42.040Z,98787.23
2018-06-23T06:39:11.312Z,98781.28
2018-06-23T06:41:40.414Z,98786.26
2018-06-23T06:44:09.246Z,98788.30
2018-06-23T06:46:38.648Z,98785.27
2018-06-23T06:49:07.569Z,98792.69
2018-06-23T06:51:36.466Z,98773.50
2018-06-23T06:54:05.522Z,98779.86
2018-06-23T06:56:34.393Z,98772.34
2018-06-23T06:59:03.764Z,98772.80
2018-06-23T07:01:32.695Z,98778.39
2018-06-23T07:04:01.772Z,98763.34
2018-06-23T07:06:30.727Z,98771.75
2018-06-23T07:08:59.570Z,98774.20
2018-06-23T07:11:28.522Z,98763.62
2018-06-23T07:13:57.601Z,98771.98
2018-06-23T07:16:26.511Z,98770.61
2018-06-23T07:18:55.417Z,98776.10
2018-06-23T07:21:24.382Z,98777.67
2018-06-23T07:23:53.763Z,98780.50
2018-06-23T07:26:22.573Z,98769.18
2018-06-23T07:28:51.366Z,98764.14
2018-06-23T07:31:20.095Z,98767.42
2018-06-23T07:33:50.574Z,98771.34
2018-06-23T07:36:19.562Z,98768.34
2018-06-23T07:38:48.359Z,98759.27
2018-06-23T07:41:17.893Z,98768.05
2018-06-23T07:43:47.369Z,98770.03
2018-06-23T07:46:16.452Z,98760.63
2018-06-23T07:48:45.617Z,98761.57
2018-06-23T07:51:15.461Z,98761.13
2018-06-23T07:53:44.470Z,98757.59
2018-06-23T07:56:13.526Z,98759.77
2018-06-23T07:58:42.289Z,98758.83
2018-06-23T08:01:11.251Z,98756.05
2018-06-23T08:03:40.091Z,98747.67
2018-06-23T08:06:08.864Z,98757.34
2018-06-23T08:08:37.694Z,98756.39
2018-06-23T08:11:06.721Z,98755.50
2018-06-23T08:13:35.554Z,98750.33
2018-06-23T08:16:04.899Z,98756.97
2018-06-23T08:18:33.905Z,98753.32
2018-06-23T08:21:03.017Z,98751.79
2018-06-23T08:23:31.939Z,98748.28
2018-06-23T08:26:00.673Z,98749.67
2018-06-23T08:28:29.483Z,98750.59
2018-06-23T08:30:58.321Z,98750.92
2018-06-23T08:33:27.474Z,98758.13
2018-06-23T08:35:56.304Z,98763.38
2018-06-23T08:38:25.199Z,98761.33
2018-06-23T08:40:54.006Z,98764.53
2018-06-23T08:43:22.808Z,98757.31
2018-06-23T08:45:52.138Z,98776.25
2018-06-23T08:48:21.095Z,98764.19
2018-06-23T08:50:50.398Z,98760.24
2018-06-23T08:53:19.303Z,98760.63
2018-06-23T08:55:48.366Z,98761.23
2018-06-23T08:58:17.354Z,98760.95
2018-06-23T09:00:46.083Z,98758.45
2018-06-23T09:03:15.038Z,98759.98
2018-06-23T09:05:43.926Z,98754.22
2018-06-23T09:08:12.789Z,98747.99
2018-06-23T09:10:41.755Z,98757.16
2018-06-23T09:13:10.676Z,98747.02
2018-06-23T09:15:39.627Z,98741.70
2018-06-23T09:18:08.695Z,98739.11
2018-06-23T09:20:37.622Z,98720.27
2018-06-23T09:23:06.499Z,98728.30
2018-06-23T09:25:35.442Z,98726.11
2018-06-23T09:28:04.295Z,98735.55
2018-06-23T09:30:33.108Z,98721.23
2018-06-23T09:33:02.091Z,98712.26
2018-06-23T09:35:30.873Z,98722.38
2018-06-23T09:37:59.675Z,98732.38
2018-06-23T09:40:28.962Z,98730.79
2018-06-23T09:42:57.822Z,98733.61
2018-06-23T09:45:26.983Z,98731.83
2018-06-23T09:47:56.167Z,98715.86
2018-06-23T09:50:25.010Z,98718.33
2018-06-23T09:52:53.966Z,98721.58
2018-06-23T09:55:23.339Z,98719.53
2018-06-23T09:57:52.313Z,98722.31
2018-06-23T10:00:25.165Z,98727.17
2018-06-23T10:02:54.006Z,98721.34
2018-06-23T10:05:22.909Z,98719.21
2018-06-23T10:07:52.030Z,98732.32
2018-06-23T10:10:21.214Z,98719.78
2018-06-23T10:12:50.085Z,98720.59
2018-06-23T10:15:18.920Z,98715.19
2018-06-23T10:17:47.942Z,98723.22
2018-06-23T10:20:16.862Z,98713.45
2018-06-23T10:22:45.860Z,98709.45
2018-06-23T10:25:14.765Z,98716.03
2018-06-23T10:27:43.840Z,98702.06
2018-06-23T10:30:12.576Z,98699.26
2018-06-23T10:32:41.722Z,98688.43
2018-06-23T10:35:10.526Z,98686.06
2018-06-23T10:37:39.485Z,98697.08
2018-06-23T10:40:08.772Z,98692.20
2018-06-23T10:42:37.642Z,98698.89
2018-06-23T10:45:07.048Z,98687.02
2018-06-23T10:47:36.024Z,98684.80
2018-06-23T10:50:05.247Z,98679.01
2018-06-23T10:52:34.201Z,98675.40
2018-06-23T10:55:04.247Z,98672.58
2018-06-23T10:57:33.314Z,98674.27
2018-06-23T11:00:02.459Z,98664.12
2018-06-23T11:02:31.925Z,98675.52
2018-06-23T11:05:00.900Z,98674.23
2018-06-23T11:07:29.756Z,98657.42
2018-06-23T11:09:58.665Z,98659.08
2018-06-23T11:12:27.433Z,98651.81
2018-06-23T11:14:56.542Z,98653.06
2018-06-23T11:17:25.561Z,98661.08
2018-06-23T11:19:55.191Z,98652.29
2018-06-23T11:22:24.230Z,98659.12
2018-06-23T11:24:53.355Z,98658.06
2018-06-23T11:27:22.590Z,98667.30
2018-06-23T11:29:51.392Z,98667.42
2018-06-23T11:32:20.463Z,98662.88
2018-06-23T11:34:49.436Z,98660.68
2018-06-23T11:37:18.799Z,98667.98
2018-06-23T11:39:47.733Z,98657.00
2018-06-23T11:42:16.986Z,98664.05
2018-06-23T11:44:46.037Z,98663.20
2018-06-23T11:47:15.273Z,98655.22
2018-06-23T11:49:44.508Z,98656.53
2018-06-23T11:52:13.770Z,98656.45
2018-06-23T11:54:43.010Z,98657.61
2018-06-23T11:57:11.819Z,98649.36
2018-06-23T11:59:40.959Z,98651.77
2018-06-23T12:02:09.939Z,98649.20
2018-06-23T12:04:39.198Z,98648.11
2018-06-23T12:07:08.523Z,98653.16
2018-06-23T12:09:37.350Z,98644.60
2018-06-23T12:12:06.310Z,98641.83
2018-06-23T12:14:35.191Z,98638.45
2018-06-23T12:17:04.670Z,98639.22
2018-06-23T12:19:33.691Z,98635.61
2018-06-23T12:22:02.576Z,98621.53
2018-06-23T12:24:32.017Z,98614.66
2018-06-23T12:27:01.362Z,98612.16
2018-06-23T12:29:30.750Z,98620.52
2018-06-23T12:31:59.645Z,98615.01
2018-06-23T12:34:28.864Z,98607.98
2018-06-23T12:36:57.814Z,98605.93
2018-06-23T12:39:26.843Z,98600.36
2018-06-23T12:41:56.908Z,98608.34
2018-06-23T12:44:26.020Z,98610.17
2018-06-23T12:46:55.751Z,98599.13
2018-06-23T12:49:24.702Z,98606.73
2018-06-23T12:51:53.685Z,98613.39
2018-06-23T12:54:22.646Z,98613.14
2018-06-23T12:56:51.847Z,98610.75
2018-06-23T12:59:21.047Z,98615.75
2018-06-23T13:01:50.246Z,98611.30
2018-06-23T13:04:19.216Z,98610.55
2018-06-23T13:06:48.282Z,98604.59
2018-06-23T13:09:17.630Z,98612.23
2018-06-23T13:11:46.768Z,98611.66
2018-06-23T13:14:16.342Z,98597.66
2018-06-23T13:16:45.524Z,98620.98
2018-06-23T13:19:14.624Z,98602.27
2018-06-23T13:21:43.987Z,98610.16
2018-06-23T13:24:14.368Z,98615.98
2018-06-23T13:26:50.756Z,98603.89
2018-06-23T13:29:26.729Z,98604.90
2018-06-23T13:32:04.555Z,98599.47
2018-06-23T13:34:42.209Z,98598.05
2018-06-23T13:37:19.585Z,98594.34
2018-06-23T13:39:59.527Z,98600.70
2018-06-23T13:42:33.688Z,98596.13
2018-06-23T13:45:10.267Z,98599.78
2018-06-23T13:47:45.265Z,98598.52
2018-06-23T13:50:19.986Z,98604.66
2018-06-23T13:52:58.327Z,98597.22
2018-06-23T13:55:40.932Z,98592.95
2018-06-23T13:58:18.316Z,98590.70
2018-06-23T14:00:55.579Z,98587.19
2018-06-23T14:03:32.278Z,98595.56
2018-06-23T14:06:11.972Z,98597.03
2018-06-23T14:08:47.635Z,98586.53
2018-06-23T14:11:21.695Z,98587.71
2018-06-23T14:14:00.591Z,98593.22
2018-06-23T14:16:39.575Z,98581.41
2018-06-23T14:19:14.224Z,98589.94
2018-06-23T14:21:48.481Z,98590.80
2018-06-23T14:24:23.623Z,98589.98
2018-06-23T14:27:02.759Z,98594.08
2018-06-23T14:29:43.945Z,98586.21
2018-06-23T14:32:27.136Z,98591.13
2018-06-23T14:35:01.162Z,98593.14
2018-06-23T14:37:37.657Z,98586.33
2018-06-23T14:40:13.049Z,98592.31
2018-06-23T14:42:49.547Z,98585.27
2018-06-23T14:45:23.531Z,98594.69
2018-06-23T14:48:06.282Z,98597.72
2018-06-23T14:50:40.042Z,98593.33
2018-06-23T14:53:14.796Z,98596.64
2018-06-23T14:55:47.365Z,98596.38
2018-06-23T14:58:22.259Z,98599.06
2018-06-23T15:00:56.027Z,98600.22
2018-06-23T15:03:32.543Z,98592.00
2018-06-23T15:06:09.063Z,98593.13
2018-06-23T15:08:51.507Z,98591.72
2018-06-23T15:11:34.262Z,98601.00
2018-06-23T15:14:13.210Z,98598.53
2018-06-23T15:16:47.187Z,98597.14
2018-06-23T15:19:26.649Z,98597.60
2018-06-23T15:22:01.024Z,98603.03
2018-06-23T15:24:35.105Z,98598.58
2018-06-23T15:27:11.263Z,98599.44
2018-06-23T15:29:46.992Z,98589.10
2018-06-23T15:32:20.779Z,98603.67
2018-06-23T15:34:59.670Z,98604.25
2018-06-23T15:37:33.208Z,98596.55
2018-06-23T15:40:06.885Z,98596.45
2018-06-23T15:42:41.134Z,98596.47
2018-06-23T15:45:18.350Z,98603.30
2018-06-23T15:47:54.041Z,98592.39
2018-06-23T15:50:27.398Z,98594.58
2018-06-23T15:53:00.820Z,98598.80
2018-06-23T15:55:33.058Z,98590.70
2018-06-23T15:58:05.893Z,98603.04
2018-06-23T16:00:37.897Z,98591.11
2018-06-23T16:03:11.443Z,98589.98
2018-06-23T16:05:45.436Z,98590.58
2018-06-23T16:08:17.981Z,98584.18
2018-06-23T16:10:53.018Z,98584.13
2018-06-23T16:13:26.849Z,98587.27
2018-06-23T16:16:02.809Z,98592.00
2018-06-23T16:18:34.911Z,98593.75
2018-06-23T16:21:06.667Z,98585.22
2018-06-23T16:23:40.855Z,98590.22
2018-06-23T16:26:11.788Z,98594.96
2018-06-23T16:28:46.253Z,98586.11
2018-06-23T16:31:19.820Z,98586.23
2018-06-23T16:33:52.134Z,98587.86
2018-06-23T16:36:25.637Z,98587.33
2018-06-23T16:38:55.908Z,98583.66
2018-06-23T16:41:28.913Z,98581.18
2018-06-23T16:44:04.974Z,98586.55
2018-06-23T16:46:40.743Z,98581.17
2018-06-23T16:49:19.113Z,98574.03
2018-06-23T16:51:55.570Z,98580.56
2018-06-23T16:54:29.256Z,98580.60
2018-06-23T16:57:02.769Z,98573.71
2018-06-23T16:59:41.745Z,98582.52
2018-06-23T17:02:19.393Z,98577.96
2018-06-23T17:04:53.738Z,98571.02
2018-06-23T17:07:26.605Z,98575.80
2018-06-23T17:10:06.120Z,98571.05
2018-06-23T17:12:40.803Z,98574.59
2018-06-23T17:15:18.217Z,98578.77
2018-06-23T17:17:54.045Z,98576.78
2018-06-23T17:20:27.905Z,98590.87
2018-06-23T17:23:01.012Z,98581.18
2018-06-23T17:25:36.516Z,98591.25
2018-06-23T17:28:08.642Z,98585.20
2018-06-23T17:30:41.611Z,98582.61
2018-06-23T17:33:13.267Z,98584.78
2018-06-23T17:35:44.223Z,98581.35
2018-06-23T17:38:15.382Z,98584.59
2018-06-23T17:40:47.460Z,98576.36
2018-06-23T17:43:25.808Z,98582.19
2018-06-23T17:46:04.813Z,98565.02
2018-06-23T17:48:36.707Z,98575.05
2018-06-23T17:51:09.797Z,98574.25
2018-06-23T17:53:41.790Z,98574.45
2018-06-23T17:56:15.859Z,98574.15
2018-06-23T17:58:49.404Z,98571.48
2018-06-23T18:01:21.834Z,98575.13
2018-06-23T18:03:54.892Z,98568.45
2018-06-23T18:06:30.530Z,98568.43
2018-06-23T18:09:04.971Z,98569.63
2018-06-23T18:11:38.092Z,98573.77
2018-06-23T18:14:10.037Z,98567.55
2018-06-23T18:16:45.117Z,98574.15
2018-06-23T18:19:18.975Z,98569.22
2018-06-23T18:21:55.428Z,98573.34
2018-06-23T18:24:27.864Z,98569.69
2018-06-23T18:27:00.049Z,98566.42
2018-06-23T18:29:32.446Z,98572.50
2018-06-23T18:32:06.514Z,98570.71
2018-06-23T18:34:39.025Z,98566.48
2018-06-23T18:37:16.918Z,98561.73
2018-06-23T18:39:52.693Z,98565.06
2018-06-23T18:42:29.004Z,98565.63
2018-06-23T18:44:59.835Z,98559.79
2018-06-23T18:47:35.048Z,98556.91
2018-06-23T18:50:08.618Z,98562.85
2018-06-23T18:52:41.961Z,98572.27
2018-06-23T18:55:14.911Z,98567.06
2018-06-23T18:57:54.096Z,98566.83
2018-06-23T19:00:26.182Z,98573.44
2018-06-23T19:02:58.213Z,98570.77
2018-06-23T19:05:32.961Z,98576.53
2018-06-23T19:08:04.610Z,98573.32
2018-06-23T19:10:39.329Z,98574.71
2018-06-23T19:13:22.870Z,98578.59
2018-06-23T19:16:03.318Z,98587.34
2018-06-23T19:18:38.273Z,98586.15
2018-06-23T19:21:21.405Z,98585.73
2018-06-23T19:23:57.535Z,98582.66
2018-06-23T19:26:30.801Z,98589.45
2018-06-23T19:29:04.113Z,98581.95
2018-06-23T19:31:37.898Z,98593.50
2018-06-23T19:34:17.294Z,98593.72
2018-06-23T19:36:55.469Z,98597.23
2018-06-23T19:39:26.069Z,98596.36
2018-06-23T19:41:57.443Z,98596.92
2018-06-23T19:44:31.010Z,98600.88
2018-06-23T19:47:02.562Z,98601.64
2018-06-23T19:49:40.767Z,98604.35
2018-06-23T19:52:12.007Z,98601.76
2018-06-23T19:54:43.323Z,98612.74
2018-06-23T19:57:13.905Z,98604.55
2018-06-23T19:59:45.468Z,98609.15
2018-06-23T20:02:23.334Z,98605.27
2018-06-23T20:05:01.133Z,98607.91
2018-06-23T20:07:34.733Z,98605.27
2018-06-23T20:10:07.163Z,98603.47
2018-06-23T20:12:39.534Z,98609.27
2018-06-23T20:15:14.206Z,98608.30
2018-06-23T20:17:49.540Z,98603.36
2018-06-23T20:20:21.783Z,98607.16
2018-06-23T20:22:54.162Z,98610.12
2018-06-23T20:25:28.290Z,98614.20
2018-06-23T20:28:02.751Z,98606.75
2018-06-23T20:30:34.802Z,98601.56
2018-06-23T20:33:08.932Z,98601.19
2018-06-23T20:35:40.319Z,98599.95
2018-06-23T20:38:11.365Z,98599.95
2018-06-23T20:40:44.616Z,98595.56
2018-06-23T20:43:17.174Z,98595.56
2018-06-23T20:45:49.217Z,98598.16
2018-06-23T20:48:27.032Z,98596.44
2018-06-23T20:51:05.272Z,98600.61
2018-06-23T20:53:38.412Z,98601.88
2018-06-23T20:56:10.789Z,98599.95
2018-06-23T20:58:43.150Z,98601.52
2018-06-23T21:01:15.256Z,98601.52
2018-06-23T21:03:48.961Z,98603.91
2018-06-23T21:06:20.395Z,98605.44
2018-06-23T21:08:53.415Z,98602.48
2018-06-23T21:11:28.167Z,98602.84
2018-06-23T21:14:03.247Z,98594.28
2018-06-23T21:16:37.755Z,98599.79
2018-06-23T21:19:17.158Z,98601.36
2018-06-23T21:22:00.331Z,98588.29
2018-06-23T21:24:35.822Z,98593.77
2018-06-23T21:27:09.087Z,98593.81
2018-06-23T21:29:47.454Z,98595.69
2018-06-23T21:32:24.094Z,98593.61
2018-06-23T21:34:57.306Z,98585.56
2018-06-23T21:37:32.089Z,98596.07
2018-06-23T21:40:05.745Z,98594.80
2018-06-23T21:42:44.986Z,98582.66
2018-06-23T21:48:03.934Z,98578.83
2018-06-23T21:50:38.155Z,98582.24
2018-06-23T21:53:12.293Z,98590.11
2018-06-23T21:55:44.377Z,98579.30
2018-06-23T21:58:18.386Z,98575.37
2018-06-23T22:00:55.877Z,98581.73
2018-06-23T22:03:29.583Z,98574.81
2018-06-23T22:06:06.552Z,98577.46
2018-06-23T22:08:41.100Z,98567.16
2018-06-23T22:11:16.976Z,98566.54
2018-06-23T22:13:50.105Z,98568.00
2018-06-23T22:16:27.358Z,98566.54
2018-06-23T22:19:18.538Z,98563.84
2018-06-23T22:21:50.668Z,98563.80
2018-06-23T22:24:22.964Z,98561.80
2018-06-23T22:26:56.164Z,98560.11
2018-06-23T22:29:31.006Z,98559.94
2018-06-23T22:32:03.435Z,98554.42
2018-06-23T22:34:38.730Z,98558.64
2018-06-23T22:37:14.079Z,98559.44
2018-06-23T22:39:49.779Z,98555.72
2018-06-23T22:42:23.007Z,98556.91
2018-06-23T22:44:56.679Z,98557.64
2018-06-23T22:47:31.802Z,98556.22
2018-06-23T22:52:49.188Z,98551.09
2018-06-23T22:55:26.590Z,98553.53
2018-06-23T22:58:01.782Z,98550.92
2018-06-23T23:00:35.531Z,98554.02
2018-06-23T23:03:08.000Z,98545.61
2018-06-23T23:05:42.464Z,98553.61
2018-06-23T23:08:18.684Z,98543.52
2018-06-23T23:10:56.074Z,98541.61
2018-06-23T23:13:31.267Z,98541.77
2018-06-23T23:16:07.143Z,98540.54
2018-06-23T23:18:41.794Z,98539.94
2018-06-23T23:21:18.097Z,98536.84
2018-06-23T23:23:55.356Z,98538.50
2018-06-23T23:26:34.139Z,98540.90
2018-06-23T23:29:07.650Z,98541.77
2018-06-23T23:31:43.941Z,98535.78
2018-06-23T23:34:16.918Z,98542.16
2018-06-23T23:36:54.268Z,98540.30
2018-06-23T23:39:26.933Z,98539.51
2018-06-23T23:42:01.555Z,98539.20
2018-06-23T23:44:32.864Z,98540.44
2018-06-23T23:47:07.049Z,98540.56
2018-06-23T23:49:39.257Z,98543.88
2018-06-23T23:52:15.601Z,98539.94
2018-06-23T23:54:50.049Z,98536.73
2018-06-23T23:57:21.822Z,98532.90
2018-06-23T23:59:54.971Z,98533.52
